createdAt,value
2023-05-06T00:00:04.844Z,12.55
2023-05-06T00:00:23.719Z,13.48
2023-05-06T00:00:35.428Z,14.80
2023-05-06T00:00:47.120Z,15.25
2023-05-06T00:00:58.833Z,16.15
2023-05-06T00:01:10.684Z,17.98
2023-05-06T00:01:22.526Z,17.35
2023-05-06T00:01:34.220Z,12.77
2023-05-06T00:01:46.066Z,12.73
2023-05-06T00:01:57.827Z,11.85
2023-05-06T00:02:09.566Z,10.27
2023-05-06T00:02:21.297Z,9.40
2023-05-06T00:02:33.024Z,10.85
2023-05-06T00:02:44.766Z,14.73
2023-05-06T00:02:56.526Z,17.58
2023-05-06T00:03:08.393Z,17.52
2023-05-06T00:03:20.288Z,19.90
2023-05-06T00:03:32.155Z,17.08
2023-05-06T00:03:44.220Z,16.33
2023-05-06T00:03:56.241Z,15.10
2023-05-06T00:04:08.087Z,15.18
2023-05-06T00:04:19.896Z,11.32
2023-05-06T00:04:31.705Z,11.50
2023-05-06T00:04:43.411Z,10.80
2023-05-06T00:04:55.416Z,14.50
2023-05-06T00:05:08.004Z,16.42
2023-05-06T00:05:19.905Z,13.75
2023-05-06T00:05:31.553Z,12.77
2023-05-06T00:05:43.242Z,16.83
2023-05-06T00:05:55.001Z,14.82
2023-05-06T00:06:06.895Z,15.35
2023-05-06T00:06:18.556Z,14.63
2023-05-06T00:06:30.226Z,14.48
2023-05-06T00:06:41.884Z,14.15
2023-05-06T00:06:53.593Z,16.35
2023-05-06T00:07:05.367Z,22.27
2023-05-06T00:07:17.047Z,18.08
2023-05-06T00:07:28.851Z,17.52
2023-05-06T00:07:40.452Z,15.30
2023-05-06T00:07:52.106Z,12.60
2023-05-06T00:08:04.973Z,12.68
2023-05-06T00:08:16.778Z,13.82
2023-05-06T00:08:28.468Z,11.38
2023-05-06T00:08:40.112Z,14.13
2023-05-06T00:08:53.197Z,15.73
2023-05-06T00:09:04.870Z,15.07
2023-05-06T00:09:16.645Z,13.38
2023-05-06T00:09:28.302Z,11.65
2023-05-06T00:09:39.948Z,12.85
2023-05-06T00:09:51.585Z,12.10
2023-05-06T00:10:03.513Z,12.95
2023-05-06T00:10:15.269Z,14.07
2023-05-06T00:10:27.091Z,14.75
2023-05-06T00:10:38.816Z,12.10
2023-05-06T00:10:50.448Z,14.68
2023-05-06T00:11:02.147Z,18.70
2023-05-06T00:11:13.861Z,18.30
2023-05-06T00:11:25.675Z,17.60
2023-05-06T00:11:37.330Z,15.18
2023-05-06T00:11:48.984Z,12.75
2023-05-06T00:12:00.680Z,9.45
2023-05-06T00:12:12.398Z,12.88
2023-05-06T00:12:24.057Z,14.25
2023-05-06T00:12:35.867Z,18.35
2023-05-06T00:12:47.582Z,17.65
2023-05-06T00:12:59.280Z,17.50
2023-05-06T00:13:11.301Z,14.13
2023-05-06T00:13:22.948Z,11.15
2023-05-06T00:13:34.643Z,12.35
2023-05-06T00:13:46.283Z,11.85
2023-05-06T00:13:57.919Z,13.35
2023-05-06T00:14:09.625Z,19.55
2023-05-06T00:14:21.330Z,24.33
2023-05-06T00:14:33.002Z,18.30
2023-05-06T00:14:44.721Z,15.25
2023-05-06T00:14:56.393Z,16.25
2023-05-06T00:15:09.453Z,17.52
2023-05-06T00:15:21.476Z,17.00
2023-05-06T00:15:33.193Z,13.48
2023-05-06T00:15:44.915Z,15.38
2023-05-06T00:15:56.656Z,14.70
2023-05-06T00:16:08.547Z,17.45
2023-05-06T00:16:20.317Z,13.90
2023-05-06T00:16:32.120Z,17.40
2023-05-06T00:16:43.971Z,21.35
2023-05-06T00:16:55.676Z,21.38
2023-05-06T00:17:07.520Z,16.10
2023-05-06T00:17:19.200Z,12.18
2023-05-06T00:17:31.054Z,11.80
2023-05-06T00:17:42.806Z,11.38
2023-05-06T00:17:54.926Z,11.55
2023-05-06T00:18:06.863Z,12.77
2023-05-06T00:18:18.549Z,16.05
2023-05-06T00:18:30.217Z,17.15
2023-05-06T00:18:41.926Z,19.63
2023-05-06T00:18:53.577Z,16.40
2023-05-06T00:19:05.821Z,8.77
2023-05-06T00:19:17.534Z,7.30
2023-05-06T00:19:29.169Z,9.68
2023-05-06T00:19:40.866Z,11.18
2023-05-06T00:19:52.584Z,11.13
2023-05-06T00:20:05.241Z,10.27
2023-05-06T00:20:16.918Z,8.55
2023-05-06T00:20:29.162Z,8.40
2023-05-06T00:20:40.877Z,11.68
2023-05-06T00:20:52.548Z,14.90
2023-05-06T00:21:04.528Z,14.55
2023-05-06T00:21:16.203Z,18.25
2023-05-06T00:21:28.033Z,16.90
2023-05-06T00:21:39.675Z,17.05
2023-05-06T00:21:51.343Z,11.35
2023-05-06T00:22:03.084Z,12.52
2023-05-06T00:22:14.795Z,15.25
2023-05-06T00:22:26.490Z,18.17
2023-05-06T00:22:38.160Z,18.95
2023-05-06T00:22:49.872Z,13.38
2023-05-06T00:23:01.537Z,12.07
2023-05-06T00:23:13.245Z,11.07
2023-05-06T00:23:24.970Z,15.55
2023-05-06T00:23:36.696Z,19.90
2023-05-06T00:23:48.281Z,17.92
2023-05-06T00:24:01.400Z,14.90
2023-05-06T00:24:13.099Z,14.60
2023-05-06T00:24:24.874Z,13.40
2023-05-06T00:24:36.631Z,11.10
2023-05-06T00:24:48.316Z,11.68
2023-05-06T00:24:59.930Z,11.88
2023-05-06T00:25:11.789Z,10.55
2023-05-06T00:25:23.539Z,11.95
2023-05-06T00:25:35.176Z,16.73
2023-05-06T00:25:46.912Z,16.65
2023-05-06T00:25:58.607Z,13.43
2023-05-06T00:26:10.401Z,10.38
2023-05-06T00:26:22.096Z,11.27
2023-05-06T00:26:33.780Z,11.23
2023-05-06T00:26:45.459Z,11.60
2023-05-06T00:26:57.129Z,11.93
2023-05-06T00:27:08.833Z,12.38
2023-05-06T00:27:20.555Z,10.88
2023-05-06T00:27:32.226Z,12.88
2023-05-06T00:27:43.832Z,16.55
2023-05-06T00:27:55.478Z,20.92
2023-05-06T00:28:07.672Z,21.08
2023-05-06T00:28:19.757Z,17.48
2023-05-06T00:28:31.433Z,9.57
2023-05-06T00:28:43.088Z,11.48
2023-05-06T00:28:54.769Z,11.38
2023-05-06T00:29:06.410Z,12.95
2023-05-06T00:29:18.112Z,12.70
2023-05-06T00:29:29.806Z,12.90
2023-05-06T00:29:41.447Z,14.38
2023-05-06T00:29:53.073Z,18.92
2023-05-06T00:30:05.765Z,18.63
2023-05-06T00:30:18.230Z,13.32
2023-05-06T00:30:29.898Z,10.40
2023-05-06T00:30:41.588Z,11.10
2023-05-06T00:30:53.221Z,14.55
2023-05-06T00:31:05.068Z,15.20
2023-05-06T00:31:16.770Z,14.15
2023-05-06T00:31:28.500Z,14.98
2023-05-06T00:31:40.886Z,13.40
2023-05-06T00:31:52.765Z,8.50
2023-05-06T00:32:05.232Z,11.23
2023-05-06T00:32:16.996Z,13.88
2023-05-06T00:32:28.741Z,17.55
2023-05-06T00:32:40.549Z,14.57
2023-05-06T00:32:52.316Z,10.30
2023-05-06T00:33:04.244Z,15.25
2023-05-06T00:33:16.060Z,15.80
2023-05-06T00:33:27.897Z,14.23
2023-05-06T00:33:39.530Z,12.88
2023-05-06T00:33:51.128Z,14.32
2023-05-06T00:34:02.742Z,17.08
2023-05-06T00:34:14.374Z,16.25
2023-05-06T00:34:26.238Z,11.88
2023-05-06T00:34:37.923Z,16.73
2023-05-06T00:34:49.621Z,18.85
2023-05-06T00:35:01.238Z,19.40
2023-05-06T00:35:12.992Z,16.10
2023-05-06T00:35:24.730Z,13.48
2023-05-06T00:35:36.929Z,10.30
2023-05-06T00:35:48.964Z,10.93
2023-05-06T00:36:00.682Z,10.75
2023-05-06T00:36:12.406Z,11.88
2023-05-06T00:36:24.077Z,14.10
2023-05-06T00:36:37.223Z,15.43
2023-05-06T00:36:48.909Z,17.45
2023-05-06T00:37:00.569Z,16.55
2023-05-06T00:37:12.210Z,14.80
2023-05-06T00:37:24.005Z,13.27
2023-05-06T00:37:35.762Z,9.38
2023-05-06T00:37:55.848Z,10.27
2023-05-06T00:38:09.076Z,18.15
2023-05-06T00:38:20.781Z,26.75
2023-05-06T00:38:32.825Z,28.27
2023-05-06T00:38:44.473Z,15.90
2023-05-06T00:38:56.111Z,16.02
2023-05-06T00:39:09.184Z,18.50
2023-05-06T00:39:20.908Z,20.50
2023-05-06T00:39:32.659Z,18.80
2023-05-06T00:39:44.358Z,14.93
2023-05-06T00:39:56.080Z,10.95
2023-05-06T00:40:09.669Z,11.70
2023-05-06T00:40:21.520Z,10.77
2023-05-06T00:40:33.153Z,10.60
2023-05-06T00:40:45.436Z,9.90
2023-05-06T00:40:57.647Z,9.55
2023-05-06T00:41:10.202Z,10.50
2023-05-06T00:41:21.846Z,13.25
2023-05-06T00:41:33.657Z,12.02
2023-05-06T00:41:45.360Z,10.68
2023-05-06T00:41:59.891Z,10.25
2023-05-06T00:42:11.570Z,10.40
2023-05-06T00:42:23.393Z,11.77
2023-05-06T00:42:35.341Z,11.90
2023-05-06T00:42:47.030Z,10.73
2023-05-06T00:42:58.669Z,9.02
2023-05-06T00:43:10.634Z,13.35
2023-05-06T00:43:22.242Z,16.73
2023-05-06T00:43:33.920Z,20.13
2023-05-06T00:43:45.594Z,14.73
2023-05-06T00:43:57.276Z,14.07
2023-05-06T00:44:08.890Z,12.68
2023-05-06T00:44:20.514Z,12.77
2023-05-06T00:44:32.246Z,8.32
2023-05-06T00:44:43.964Z,8.50
2023-05-06T00:44:55.670Z,9.93
2023-05-06T00:45:08.764Z,11.35
2023-05-06T00:45:21.111Z,9.48
2023-05-06T00:45:33.234Z,13.15
2023-05-06T00:45:45.063Z,17.90
2023-05-06T00:45:56.989Z,15.27
2023-05-06T00:46:09.755Z,10.95
2023-05-06T00:46:21.495Z,9.73
2023-05-06T00:46:33.589Z,9.07
2023-05-06T00:46:45.632Z,9.73
2023-05-06T00:46:58.997Z,11.52
2023-05-06T00:47:10.656Z,13.27
2023-05-06T00:47:22.738Z,14.32
2023-05-06T00:47:34.639Z,14.43
2023-05-06T00:47:46.473Z,14.07
2023-05-06T00:47:58.943Z,11.00
2023-05-06T00:48:10.908Z,12.18
2023-05-06T00:48:23.066Z,13.57
2023-05-06T00:48:35.307Z,13.23
2023-05-06T00:48:47.129Z,12.02
2023-05-06T00:48:58.840Z,15.80
2023-05-06T00:49:11.829Z,15.80
2023-05-06T00:49:23.759Z,10.27
2023-05-06T00:49:35.515Z,10.10
2023-05-06T00:49:47.700Z,11.18
2023-05-06T00:49:59.747Z,12.27
2023-05-06T00:50:11.725Z,9.90
2023-05-06T00:50:24.182Z,8.60
2023-05-06T00:50:36.103Z,10.88
2023-05-06T00:50:47.852Z,10.43
2023-05-06T00:50:59.568Z,10.07
2023-05-06T00:51:12.018Z,11.70
2023-05-06T00:51:23.760Z,14.60
2023-05-06T00:51:35.903Z,14.32
2023-05-06T00:51:48.109Z,12.63
2023-05-06T00:52:00.249Z,12.10
2023-05-06T00:52:12.429Z,10.23
2023-05-06T00:52:24.139Z,8.35
2023-05-06T00:52:35.884Z,9.80
2023-05-06T00:52:48.086Z,10.10
2023-05-06T00:53:02.239Z,11.82
2023-05-06T00:53:14.069Z,11.85
2023-05-06T00:53:25.780Z,11.48
2023-05-06T00:53:38.510Z,7.65
2023-05-06T00:53:50.489Z,10.60
2023-05-06T00:54:02.378Z,11.32
2023-05-06T00:54:16.041Z,14.43
2023-05-06T00:54:28.008Z,16.08
2023-05-06T00:54:39.799Z,14.55
2023-05-06T00:54:51.429Z,10.65
2023-05-06T00:55:03.203Z,15.20
2023-05-06T00:55:15.212Z,14.80
2023-05-06T00:55:27.488Z,14.93
2023-05-06T00:55:39.911Z,10.65
2023-05-06T00:55:51.648Z,11.88
2023-05-06T00:56:04.285Z,13.57
2023-05-06T00:56:16.300Z,15.30
2023-05-06T00:56:28.640Z,15.05
2023-05-06T00:56:41.345Z,19.92
2023-05-06T00:56:54.028Z,18.77
2023-05-06T00:57:06.015Z,16.13
2023-05-06T00:57:17.792Z,15.65
2023-05-06T00:57:29.528Z,15.57
2023-05-06T00:57:42.132Z,11.43
2023-05-06T00:57:54.336Z,9.52
2023-05-06T00:58:06.278Z,11.50
2023-05-06T00:58:19.481Z,12.48
2023-05-06T00:58:31.237Z,13.07
2023-05-06T00:58:43.606Z,13.50
2023-05-06T00:58:55.405Z,11.52
2023-05-06T00:59:07.241Z,10.63
2023-05-06T00:59:19.344Z,16.02
2023-05-06T00:59:31.805Z,14.80
2023-05-06T00:59:43.942Z,13.85
2023-05-06T00:59:55.687Z,9.68
2023-05-06T01:00:08.570Z,8.88
2023-05-06T01:00:20.587Z,10.73
2023-05-06T01:00:32.366Z,11.48
2023-05-06T01:00:44.289Z,11.75
2023-05-06T01:00:56.613Z,11.65
2023-05-06T01:01:20.770Z,14.18
2023-05-06T01:01:32.564Z,11.80
2023-05-06T01:01:44.255Z,9.63
2023-05-06T01:01:55.948Z,12.77
2023-05-06T01:02:07.794Z,13.40
2023-05-06T01:02:19.522Z,19.67
2023-05-06T01:02:39.826Z,16.60
2023-05-06T01:02:57.829Z,13.65
2023-05-06T01:03:09.992Z,10.10
2023-05-06T01:03:22.023Z,9.15
2023-05-06T01:03:33.870Z,8.50
2023-05-06T01:03:45.935Z,10.68
2023-05-06T01:03:57.942Z,12.93
2023-05-06T01:04:10.016Z,11.25
2023-05-06T01:04:22.570Z,14.38
2023-05-06T01:04:34.468Z,17.77
2023-05-06T01:04:46.232Z,16.35
2023-05-06T01:04:58.305Z,16.90
2023-05-06T01:05:10.626Z,11.18
2023-05-06T01:05:25.862Z,10.65
2023-05-06T01:05:53.496Z,12.05
2023-05-06T01:06:16.866Z,12.60
2023-05-06T01:06:35.757Z,11.45
2023-05-06T01:06:58.419Z,12.45
2023-05-06T01:07:23.365Z,12.13
2023-05-06T01:07:42.206Z,11.93
2023-05-06T01:08:04.467Z,13.30
2023-05-06T01:08:25.116Z,12.38
2023-05-06T01:08:44.211Z,10.70
2023-05-06T01:09:02.963Z,10.10
2023-05-06T01:09:20.796Z,12.35
2023-05-06T01:09:41.633Z,13.60
2023-05-06T01:10:04.717Z,13.65
2023-05-06T01:10:21.507Z,11.55
2023-05-06T01:10:42.333Z,13.05
2023-05-06T01:10:56.995Z,11.15
2023-05-06T01:11:15.819Z,10.00
2023-05-06T01:11:33.930Z,8.75
2023-05-06T01:11:49.417Z,11.25
2023-05-06T01:12:07.020Z,13.02
2023-05-06T01:12:24.136Z,18.50
2023-05-06T01:12:43.974Z,17.65
2023-05-06T01:13:04.961Z,17.50
2023-05-06T01:13:24.670Z,13.38
2023-05-06T01:13:45.176Z,16.38
2023-05-06T01:14:00.830Z,15.23
2023-05-06T01:14:19.221Z,12.68
2023-05-06T01:14:39.681Z,10.85
2023-05-06T01:14:59.679Z,9.73
2023-05-06T01:15:15.118Z,13.07
2023-05-06T01:15:32.979Z,11.40
2023-05-06T01:15:46.781Z,10.95
2023-05-06T01:16:01.256Z,12.63
2023-05-06T01:16:15.860Z,14.63
2023-05-06T01:16:29.381Z,14.63
2023-05-06T01:16:41.348Z,13.63
2023-05-06T01:16:58.147Z,10.90
2023-05-06T01:17:12.840Z,8.82
2023-05-06T01:17:27.551Z,9.15
2023-05-06T01:17:43.422Z,8.45
2023-05-06T01:17:57.499Z,8.10
2023-05-06T01:18:11.005Z,9.15
2023-05-06T01:18:25.430Z,9.50
2023-05-06T01:18:38.579Z,11.20
2023-05-06T01:18:53.578Z,10.40
2023-05-06T01:19:08.777Z,8.77
2023-05-06T01:19:36.734Z,8.23
2023-05-06T01:19:50.867Z,9.98
2023-05-06T01:20:04.520Z,9.23
2023-05-06T01:20:18.486Z,10.40
2023-05-06T01:20:31.031Z,13.20
2023-05-06T01:20:44.913Z,14.40
2023-05-06T01:20:56.962Z,12.05
2023-05-06T01:21:09.472Z,8.75
2023-05-06T01:21:22.664Z,8.77
2023-05-06T01:21:35.259Z,9.18
2023-05-06T01:21:50.290Z,12.63
2023-05-06T01:22:05.587Z,14.13
2023-05-06T01:22:19.368Z,11.27
2023-05-06T01:22:31.442Z,12.10
2023-05-06T01:22:43.273Z,11.27
2023-05-06T01:22:55.889Z,13.32
2023-05-06T01:23:11.795Z,11.48
2023-05-06T01:23:23.450Z,8.70
2023-05-06T01:23:51.116Z,8.95
2023-05-06T01:24:02.840Z,13.07
2023-05-06T01:24:14.473Z,18.42
2023-05-06T01:24:35.205Z,15.82
2023-05-06T01:24:47.085Z,8.95
2023-05-06T01:24:59.145Z,8.57
2023-05-06T01:25:18.352Z,9.23
2023-05-06T01:25:30.037Z,9.98
2023-05-06T01:25:41.998Z,10.05
2023-05-06T01:25:53.739Z,8.93
2023-05-06T01:26:05.485Z,10.07
2023-05-06T01:26:17.148Z,12.98
2023-05-06T01:26:28.879Z,13.98
2023-05-06T01:26:40.530Z,13.25
2023-05-06T01:26:52.183Z,16.05
2023-05-06T01:27:03.959Z,17.90
2023-05-06T01:27:17.126Z,13.80
2023-05-06T01:27:29.116Z,8.20
2023-05-06T01:27:41.153Z,9.95
2023-05-06T01:27:52.870Z,9.10
2023-05-06T01:28:04.655Z,10.55
2023-05-06T01:28:16.347Z,10.85
2023-05-06T01:28:28.076Z,11.38
2023-05-06T01:28:39.723Z,11.35
2023-05-06T01:28:51.572Z,12.05
2023-05-06T01:29:03.996Z,11.52
2023-05-06T01:29:15.837Z,15.05
2023-05-06T01:29:28.032Z,14.27
2023-05-06T01:29:42.469Z,14.32
2023-05-06T01:29:54.859Z,10.73
2023-05-06T01:30:07.900Z,10.43
2023-05-06T01:30:22.853Z,9.52
2023-05-06T01:30:40.772Z,10.75
2023-05-06T01:30:57.915Z,12.65
2023-05-06T01:31:13.296Z,15.15
2023-05-06T01:31:26.749Z,13.82
2023-05-06T01:31:49.391Z,10.07
2023-05-06T01:32:11.450Z,10.55
2023-05-06T01:32:36.279Z,12.88
2023-05-06T01:32:59.151Z,12.40
2023-05-06T01:33:17.917Z,11.40
2023-05-06T01:33:36.041Z,13.60
2023-05-06T01:33:57.149Z,10.88
2023-05-06T01:34:14.327Z,15.75
2023-05-06T01:34:37.480Z,14.90
2023-05-06T01:34:55.625Z,11.18
2023-05-06T01:35:16.924Z,12.27
2023-05-06T01:35:35.555Z,10.13
2023-05-06T01:35:58.059Z,12.90
2023-05-06T01:36:15.977Z,11.27
2023-05-06T01:36:37.036Z,9.68
2023-05-06T01:36:58.385Z,9.80
2023-05-06T01:37:19.277Z,8.98
2023-05-06T01:37:42.140Z,12.95
2023-05-06T01:38:00.097Z,11.45
2023-05-06T01:38:22.340Z,8.38
2023-05-06T01:38:39.224Z,11.02
2023-05-06T01:39:01.066Z,13.73
2023-05-06T01:39:17.550Z,11.18
2023-05-06T01:39:32.332Z,12.05
2023-05-06T01:39:46.133Z,10.98
2023-05-06T01:40:00.065Z,10.07
2023-05-06T01:40:13.510Z,11.93
2023-05-06T01:40:27.260Z,12.93
2023-05-06T01:40:41.239Z,10.25
2023-05-06T01:40:55.530Z,8.48
2023-05-06T01:41:09.525Z,11.60
2023-05-06T01:41:22.905Z,12.65
2023-05-06T01:41:38.277Z,10.25
2023-05-06T01:41:51.768Z,9.90
2023-05-06T01:42:04.788Z,12.30
2023-05-06T01:42:17.741Z,13.18
2023-05-06T01:42:31.087Z,10.65
2023-05-06T01:42:47.102Z,10.98
2023-05-06T01:43:01.653Z,14.52
2023-05-06T01:43:15.187Z,13.75
2023-05-06T01:43:32.370Z,10.32
2023-05-06T01:43:47.374Z,10.45
2023-05-06T01:44:00.297Z,10.02
2023-05-06T01:44:12.317Z,9.35
2023-05-06T01:44:27.614Z,8.07
2023-05-06T01:44:39.982Z,11.15
2023-05-06T01:44:53.050Z,11.50
2023-05-06T01:45:07.112Z,9.07
2023-05-06T01:45:20.940Z,10.73
2023-05-06T01:45:36.243Z,10.60
2023-05-06T01:45:51.962Z,9.85
2023-05-06T01:46:04.048Z,10.07
2023-05-06T01:46:22.364Z,9.13
2023-05-06T01:46:35.080Z,13.32
2023-05-06T01:46:48.427Z,14.75
2023-05-06T01:47:01.026Z,10.60
2023-05-06T01:47:13.610Z,8.95
2023-05-06T01:47:25.835Z,7.65
2023-05-06T01:47:39.322Z,8.77
2023-05-06T01:47:51.188Z,10.77
2023-05-06T01:48:03.508Z,10.25
2023-05-06T01:48:16.023Z,13.57
2023-05-06T01:48:30.084Z,11.60
2023-05-06T01:48:42.979Z,11.25
2023-05-06T01:48:56.470Z,12.20
2023-05-06T01:49:10.695Z,12.48
2023-05-06T01:49:25.173Z,14.98
2023-05-06T01:49:36.881Z,14.30
2023-05-06T01:49:48.996Z,13.38
2023-05-06T01:50:01.921Z,12.32
2023-05-06T01:50:13.965Z,13.35
2023-05-06T01:50:26.137Z,11.32
2023-05-06T01:50:38.718Z,11.90
2023-05-06T01:50:50.709Z,11.80
2023-05-06T01:51:03.133Z,8.20
2023-05-06T01:51:14.767Z,9.00
2023-05-06T01:51:26.653Z,9.93
2023-05-06T01:51:38.803Z,11.00
2023-05-06T01:51:51.388Z,9.95
2023-05-06T01:52:03.125Z,11.02
2023-05-06T01:52:15.717Z,11.35
2023-05-06T01:52:27.408Z,10.70
2023-05-06T01:53:01.801Z,11.43
2023-05-06T01:53:14.828Z,11.95
2023-05-06T01:53:26.642Z,9.02
2023-05-06T01:53:38.378Z,9.55
2023-05-06T01:53:50.067Z,8.88
2023-05-06T01:54:02.211Z,9.45
2023-05-06T01:54:13.984Z,11.02
2023-05-06T01:54:25.705Z,10.88
2023-05-06T01:54:37.405Z,11.93
2023-05-06T01:54:49.092Z,12.55
2023-05-06T01:55:00.751Z,11.88
2023-05-06T01:55:12.583Z,11.25
2023-05-06T01:55:24.514Z,12.48
2023-05-06T01:55:36.206Z,12.50
2023-05-06T01:55:48.158Z,11.05
2023-05-06T01:56:01.621Z,11.68
2023-05-06T01:56:32.537Z,13.15
2023-05-06T01:56:44.365Z,14.25
2023-05-06T01:56:56.022Z,14.05
2023-05-06T01:57:07.635Z,10.75
2023-05-06T01:57:19.306Z,11.25
2023-05-06T01:57:31.034Z,14.10
2023-05-06T01:57:42.747Z,13.98
2023-05-06T01:57:54.501Z,11.20
2023-05-06T01:58:06.294Z,13.45
2023-05-06T01:58:17.989Z,13.82
2023-05-06T01:58:29.700Z,11.40
2023-05-06T01:58:41.397Z,8.90
2023-05-06T01:58:53.001Z,10.32
2023-05-06T01:59:04.605Z,11.75
2023-05-06T01:59:16.351Z,14.52
2023-05-06T01:59:29.521Z,14.65
2023-05-06T01:59:41.478Z,10.80
2023-05-06T01:59:53.310Z,9.35
2023-05-06T02:00:06.285Z,8.73
2023-05-06T02:00:24.487Z,15.05
2023-05-06T02:00:38.312Z,15.55
2023-05-06T02:00:50.168Z,11.23
2023-05-06T02:01:01.925Z,14.00
2023-05-06T02:01:13.621Z,12.48
2023-05-06T02:01:25.434Z,16.35
2023-05-06T02:01:37.262Z,16.20
2023-05-06T02:01:49.027Z,16.55
2023-05-06T02:02:01.501Z,16.17
2023-05-06T02:02:13.196Z,18.10
2023-05-06T02:02:25.154Z,13.40
2023-05-06T02:02:37.044Z,9.95
2023-05-06T02:02:48.952Z,8.70
2023-05-06T02:03:00.660Z,9.48
2023-05-06T02:03:12.593Z,10.85
2023-05-06T02:03:24.604Z,10.70
2023-05-06T02:03:36.726Z,11.40
2023-05-06T02:03:48.876Z,10.90
2023-05-06T02:04:01.330Z,10.57
2023-05-06T02:04:13.578Z,13.75
2023-05-06T02:04:25.459Z,13.45
2023-05-06T02:04:37.384Z,8.65
2023-05-06T02:04:49.542Z,10.93
2023-05-06T02:05:01.421Z,10.88
2023-05-06T02:05:13.435Z,10.18
2023-05-06T02:05:29.851Z,9.80
2023-05-06T02:05:43.329Z,9.80
2023-05-06T02:05:55.299Z,9.20
2023-05-06T02:06:07.527Z,10.43
2023-05-06T02:06:22.187Z,12.13
2023-05-06T02:06:33.920Z,14.20
2023-05-06T02:06:45.622Z,13.35
2023-05-06T02:07:00.239Z,17.77
2023-05-06T02:07:11.916Z,16.77
2023-05-06T02:07:23.560Z,14.35
2023-05-06T02:07:35.250Z,11.70
2023-05-06T02:07:47.066Z,14.88
2023-05-06T02:07:58.712Z,16.48
2023-05-06T02:08:10.436Z,13.60
2023-05-06T02:08:23.637Z,12.10
2023-05-06T02:08:35.349Z,11.05
2023-05-06T02:08:48.998Z,9.52
2023-05-06T02:09:04.356Z,9.13
2023-05-06T02:09:19.000Z,11.25
2023-05-06T02:09:36.966Z,11.13
2023-05-06T02:09:48.849Z,9.48
2023-05-06T02:10:00.577Z,10.93
2023-05-06T02:10:12.555Z,11.38
2023-05-06T02:10:28.179Z,13.02
2023-05-06T02:10:44.209Z,13.40
2023-05-06T02:10:56.005Z,11.38
2023-05-06T02:11:07.948Z,13.02
2023-05-06T02:11:20.793Z,13.88
2023-05-06T02:11:34.356Z,13.07
2023-05-06T02:11:49.351Z,11.13
2023-05-06T02:12:01.096Z,12.10
2023-05-06T02:12:12.740Z,12.13
2023-05-06T02:12:24.428Z,11.10
2023-05-06T02:12:36.071Z,13.63
2023-05-06T02:12:48.342Z,19.05
2023-05-06T02:13:00.111Z,19.40
2023-05-06T02:13:12.083Z,18.80
2023-05-06T02:13:23.848Z,18.45
2023-05-06T02:13:35.611Z,15.23
2023-05-06T02:13:47.440Z,15.88
2023-05-06T02:13:59.140Z,11.12
2023-05-06T02:14:10.939Z,15.30
2023-05-06T02:14:22.865Z,12.45
2023-05-06T02:14:34.893Z,13.75
2023-05-06T02:14:47.413Z,10.98
2023-05-06T02:14:59.110Z,13.85
2023-05-06T02:15:11.565Z,13.68
2023-05-06T02:15:23.464Z,12.75
2023-05-06T02:15:35.146Z,10.75
2023-05-06T02:15:46.999Z,9.95
2023-05-06T02:16:02.157Z,10.48
2023-05-06T02:16:14.091Z,10.85
2023-05-06T02:16:27.695Z,9.00
2023-05-06T02:16:39.596Z,9.70
2023-05-06T02:16:51.388Z,11.85
2023-05-06T02:17:03.813Z,12.43
2023-05-06T02:17:15.548Z,12.20
2023-05-06T02:17:27.225Z,14.20
2023-05-06T02:17:38.911Z,13.50
2023-05-06T02:17:50.680Z,12.52
2023-05-06T02:18:02.526Z,10.40
2023-05-06T02:18:14.225Z,7.60
2023-05-06T02:18:25.988Z,7.72
2023-05-06T02:18:37.788Z,12.65
2023-05-06T02:18:49.771Z,13.20
2023-05-06T02:19:01.541Z,13.55
2023-05-06T02:19:13.262Z,8.90
2023-05-06T02:19:24.920Z,10.05
2023-05-06T02:19:36.532Z,14.38
2023-05-06T02:19:48.299Z,15.75
2023-05-06T02:19:59.976Z,11.48
2023-05-06T02:20:11.817Z,8.65
2023-05-06T02:20:23.687Z,8.68
2023-05-06T02:20:35.515Z,9.30
2023-05-06T02:20:47.308Z,9.75
2023-05-06T02:21:01.174Z,10.60
2023-05-06T02:21:12.817Z,9.57
2023-05-06T02:21:24.437Z,9.40
2023-05-06T02:21:36.389Z,10.02
2023-05-06T02:21:48.081Z,9.77
2023-05-06T02:21:59.764Z,9.75
2023-05-06T02:22:11.440Z,8.55
2023-05-06T02:22:23.270Z,10.20
2023-05-06T02:22:35.364Z,10.88
2023-05-06T02:22:47.040Z,13.98
2023-05-06T02:22:58.696Z,11.95
2023-05-06T02:23:10.429Z,10.48
2023-05-06T02:23:23.474Z,12.00
2023-05-06T02:23:35.247Z,11.80
2023-05-06T02:23:46.917Z,11.30
2023-05-06T02:23:58.615Z,11.68
2023-05-06T02:24:10.329Z,10.00
2023-05-06T02:24:22.062Z,12.50
2023-05-06T02:24:33.712Z,10.45
2023-05-06T02:24:45.413Z,10.15
2023-05-06T02:24:58.041Z,10.02
2023-05-06T02:25:10.149Z,11.15
2023-05-06T02:25:22.374Z,13.63
2023-05-06T02:25:33.983Z,14.40
2023-05-06T02:25:45.697Z,9.27
2023-05-06T02:25:57.729Z,10.10
2023-05-06T02:26:09.366Z,12.80
2023-05-06T02:26:21.682Z,14.55
2023-05-06T02:26:33.403Z,13.68
2023-05-06T02:26:45.012Z,13.40
2023-05-06T02:26:56.667Z,11.48
2023-05-06T02:27:08.368Z,11.93
2023-05-06T02:27:20.000Z,12.38
2023-05-06T02:27:31.704Z,13.00
2023-05-06T02:27:43.389Z,10.60
2023-05-06T02:27:55.008Z,11.63
2023-05-06T02:28:06.717Z,11.23
2023-05-06T02:28:18.412Z,10.32
2023-05-06T02:28:30.257Z,8.02
2023-05-06T02:28:42.086Z,7.90
2023-05-06T02:28:57.157Z,10.00
2023-05-06T02:29:08.813Z,13.73
2023-05-06T02:29:20.533Z,12.55
2023-05-06T02:29:32.188Z,13.75
2023-05-06T02:29:44.098Z,12.70
2023-05-06T02:29:55.766Z,9.85
2023-05-06T02:30:08.065Z,10.00
2023-05-06T02:30:19.916Z,15.20
2023-05-06T02:30:31.575Z,16.60
2023-05-06T02:30:43.247Z,18.88
2023-05-06T02:30:55.660Z,13.48
2023-05-06T02:31:07.345Z,14.25
2023-05-06T02:31:19.098Z,14.48
2023-05-06T02:31:30.937Z,13.82
2023-05-06T02:31:42.637Z,15.02
2023-05-06T02:31:54.460Z,13.40
2023-05-06T02:32:06.161Z,11.25
2023-05-06T02:32:17.828Z,9.82
2023-05-06T02:32:29.533Z,10.25
2023-05-06T02:32:41.269Z,8.98
2023-05-06T02:32:52.989Z,7.97
2023-05-06T02:33:04.836Z,8.52
2023-05-06T02:33:16.476Z,9.50
2023-05-06T02:33:29.069Z,12.48
2023-05-06T02:33:40.741Z,13.45
2023-05-06T02:33:52.379Z,13.23
2023-05-06T02:34:04.998Z,9.13
2023-05-06T02:34:16.688Z,11.27
2023-05-06T02:34:28.322Z,12.63
2023-05-06T02:34:40.028Z,9.55
2023-05-06T02:34:51.717Z,9.70
2023-05-06T02:35:06.661Z,8.05
2023-05-06T02:35:18.711Z,7.80
2023-05-06T02:35:30.410Z,7.85
2023-05-06T02:35:42.096Z,8.98
2023-05-06T02:35:53.801Z,11.60
2023-05-06T02:36:05.945Z,17.60
2023-05-06T02:36:17.610Z,14.95
2023-05-06T02:36:29.304Z,15.02
2023-05-06T02:36:40.962Z,10.32
2023-05-06T02:36:52.624Z,10.68
2023-05-06T02:37:04.281Z,10.02
2023-05-06T02:37:15.953Z,8.30
2023-05-06T02:37:27.602Z,9.52
2023-05-06T02:37:39.240Z,10.90
2023-05-06T02:37:50.964Z,11.52
2023-05-06T02:38:02.624Z,11.30
2023-05-06T02:38:14.280Z,10.57
2023-05-06T02:38:27.306Z,12.40
2023-05-06T02:38:39.005Z,12.48
2023-05-06T02:38:50.679Z,9.82
2023-05-06T02:39:02.385Z,13.60
2023-05-06T02:39:14.098Z,13.93
2023-05-06T02:39:25.735Z,12.02
2023-05-06T02:39:37.377Z,12.50
2023-05-06T02:39:49.081Z,11.88
2023-05-06T02:40:00.753Z,10.60
2023-05-06T02:40:12.764Z,9.23
2023-05-06T02:40:24.484Z,8.55
2023-05-06T02:40:36.080Z,8.93
2023-05-06T02:40:47.756Z,10.85
2023-05-06T02:40:59.465Z,12.52
2023-05-06T02:41:11.354Z,11.40
2023-05-06T02:41:23.080Z,11.05
2023-05-06T02:41:34.735Z,9.60
2023-05-06T02:41:46.422Z,10.60
2023-05-06T02:41:58.062Z,12.38
2023-05-06T02:42:14.487Z,14.38
2023-05-06T02:42:26.108Z,12.63
2023-05-06T02:42:37.962Z,12.73
2023-05-06T02:42:50.465Z,10.68
2023-05-06T02:43:02.208Z,10.05
2023-05-06T02:43:13.858Z,8.57
2023-05-06T02:43:25.682Z,8.07
2023-05-06T02:43:37.276Z,9.55
2023-05-06T02:43:49.939Z,9.95
2023-05-06T02:44:01.614Z,12.30
2023-05-06T02:44:15.194Z,17.58
2023-05-06T02:44:26.820Z,17.83
2023-05-06T02:44:38.542Z,13.50
2023-05-06T02:44:50.205Z,11.10
2023-05-06T02:45:02.011Z,9.38
2023-05-06T02:45:13.699Z,10.00
2023-05-06T02:45:25.374Z,12.27
2023-05-06T02:45:37.750Z,12.23
2023-05-06T02:45:49.394Z,11.13
2023-05-06T02:46:01.136Z,10.55
2023-05-06T02:46:12.918Z,11.00
2023-05-06T02:46:24.881Z,11.00
2023-05-06T02:46:37.486Z,10.68
2023-05-06T02:46:49.122Z,9.40
2023-05-06T02:47:00.812Z,8.85
2023-05-06T02:47:12.587Z,9.68
2023-05-06T02:47:24.411Z,9.77
2023-05-06T02:47:36.143Z,9.55